Time;durP1;ratioP1;P1;durP2;ratioP2;P2;SDS_P1;SDS_P2;PMS_P1;PMS_P2;Temp;Humidity;BMP_temperature;BMP_pressure;BME280_temperature;BME280_humidity;BME280_pressure;Samples;Min_cycle;Max_cycle;Signal;HPM_P1;HPM_P2
2021/05/29 00:00:08;;;;;;;6.00;2.65;;;12.70;99.90;;;;;;5100432;28;20102;-75
2021/05/29 00:02:34;;;;;;;5.38;3.60;;;12.60;99.90;;;;;;5113924;28;20024;-75
2021/05/29 00:05:00;;;;;;;7.30;3.90;;;12.70;99.90;;;;;;5114104;28;20048;-75
2021/05/29 00:07:25;;;;;;;4.60;3.17;;;12.60;99.90;;;;;;5113432;28;20463;-75
2021/05/29 00:09:51;;;;;;;3.08;2.50;;;12.70;99.90;;;;;;5103952;28;20035;-75
2021/05/29 00:12:17;;;;;;;3.50;2.70;;;12.60;99.90;;;;;;5104791;28;20038;-75
2021/05/29 00:14:46;;;;;;;3.45;2.65;;;12.40;99.90;;;;;;5103448;28;20390;-75
2021/05/29 00:17:12;;;;;;;4.60;2.55;;;12.30;99.90;;;;;;5093153;28;20024;-75
2021/05/29 00:19:38;;;;;;;7.03;3.13;;;12.20;99.90;;;;;;5092605;28;20078;-75
2021/05/29 00:22:04;;;;;;;4.20;2.97;;;12.10;99.90;;;;;;5092581;28;20032;-75
2021/05/29 00:24:30;;;;;;;3.80;3.28;;;12.30;99.90;;;;;;5092917;28;20020;-75
2021/05/29 00:26:56;;;;;;;8.70;3.28;;;12.30;99.90;;;;;;5099434;28;20036;-75
2021/05/29 00:29:22;;;;;;;4.57;3.10;;;12.30;99.90;;;;;;5108068;28;20035;-75
2021/05/29 00:31:47;;;;;;;4.13;2.60;;;12.30;99.90;;;;;;5107532;28;20472;-75
2021/05/29 00:34:13;;;;;;;6.55;2.75;;;12.20;99.90;;;;;;5099514;28;20020;-75
2021/05/29 00:36:39;;;;;;;4.88;3.85;;;12.10;99.90;;;;;;5101008;28;20024;-75
2021/05/29 00:39:05;;;;;;;5.43;2.55;;;12.10;99.90;;;;;;5092979;28;20032;-74
2021/05/29 00:41:32;;;;;;;4.63;2.75;;;12.10;99.90;;;;;;5093655;28;20042;-74
2021/05/29 00:43:57;;;;;;;5.97;2.95;;;12.10;99.90;;;;;;5092920;28;20024;-75
2021/05/29 00:46:23;;;;;;;3.90;2.53;;;12.10;99.90;;;;;;5099698;28;20361;-75
2021/05/29 00:48:49;;;;;;;3.83;3.17;;;12.00;99.90;;;;;;5106850;28;20020;-75
2021/05/29 00:51:15;;;;;;;4.20;2.67;;;11.90;99.90;;;;;;5097837;28;20066;-75
2021/05/29 00:53:41;;;;;;;4.25;2.55;;;12.00;99.90;;;;;;5117075;27;20026;-75
2021/05/29 00:56:07;;;;;;;3.75;3.03;;;12.00;99.90;;;;;;5104284;28;20032;-75
2021/05/29 00:58:34;;;;;;;7.32;2.70;;;11.90;99.90;;;;;;5113599;28;20029;-74
2021/05/29 01:01:00;;;;;;;5.22;2.70;;;11.90;99.90;;;;;;5092386;28;20058;-75
2021/05/29 01:03:28;;;;;;;5.50;2.25;;;11.80;99.90;;;;;;5108393;28;20876;-75
2021/05/29 01:05:54;;;;;;;3.63;2.33;;;11.70;99.90;;;;;;5107202;28;20024;-75
2021/05/29 01:08:24;;;;;;;3.88;2.78;;;11.70;99.90;;;;;;5108484;28;20382;-75
2021/05/29 01:10:50;;;;;;;6.40;2.38;;;11.70;99.90;;;;;;5107184;28;20150;-75
2021/05/29 01:13:16;;;;;;;2.83;2.25;;;11.80;99.90;;;;;;5110975;28;20095;-76
2021/05/29 01:15:44;;;;;;;6.10;2.40;;;11.70;99.90;;;;;;5110468;28;20380;-75
2021/05/29 01:18:16;;;;;;;4.82;2.15;;;11.50;99.90;;;;;;5109731;28;20098;-75
2021/05/29 01:20:46;;;;;;;4.18;2.00;;;11.40;99.90;;;;;;5106685;28;20031;-75
2021/05/29 01:23:13;;;;;;;4.97;2.67;;;11.40;99.90;;;;;;5107939;28;20043;-74
2021/05/29 01:25:42;;;;;;;3.00;2.47;;;11.40;99.90;;;;;;5107376;28;20029;-75
2021/05/29 01:28:13;;;;;;;4.80;2.85;;;11.20;99.90;;;;;;5107073;28;20043;-75
2021/05/29 01:30:44;;;;;;;3.30;2.50;;;11.30;99.90;;;;;;5109211;28;20088;-74
2021/05/29 01:33:12;;;;;;;3.13;2.50;;;11.50;99.90;;;;;;5110576;28;20039;-75
2021/05/29 01:35:38;;;;;;;4.03;2.60;;;11.50;99.90;;;;;;5108820;28;20030;-75
2021/05/29 01:38:05;;;;;;;3.25;2.10;;;11.40;99.90;;;;;;5108688;28;20028;-75
2021/05/29 01:40:31;;;;;;;4.40;2.30;;;11.40;99.90;;;;;;5107786;28;20435;-75
2021/05/29 01:42:58;;;;;;;6.25;3.45;;;11.30;99.90;;;;;;5103732;28;20119;-75
2021/05/29 01:45:29;;;;;;;4.78;2.88;;;11.20;99.90;;;;;;5110080;28;20035;-75
2021/05/29 01:47:55;;;;;;;4.45;3.60;;;11.20;99.90;;;;;;5110912;28;20106;-75
2021/05/29 01:50:22;;;;;;;5.57;2.60;;;11.30;99.90;;;;;;5113469;27;20026;-74
2021/05/29 01:52:55;;;;;;;2.60;2.40;;;11.40;99.90;;;;;;5110806;27;20027;-74
2021/05/29 01:55:27;;;;;;;6.43;2.55;;;11.30;99.90;;;;;;5107752;28;20012;-75
2021/05/29 01:57:54;;;;;;;2.65;2.45;;;11.30;99.90;;;;;;5111380;28;20026;-75
2021/05/29 02:00:23;;;;;;;3.22;2.63;;;11.30;99.90;;;;;;5108033;28;20111;-75
2021/05/29 02:02:49;;;;;;;4.77;2.67;;;11.30;99.90;;;;;;5115745;28;20404;-75
2021/05/29 02:05:27;;;;;;;3.90;2.78;;;11.30;99.90;;;;;;5106633;28;20092;-75
2021/05/29 02:07:54;;;;;;;3.05;2.45;;;11.20;99.90;;;;;;5098860;28;20484;-74
2021/05/29 02:10:22;;;;;;;2.40;2.17;;;11.10;99.90;;;;;;5111446;28;20019;-75
2021/05/29 02:12:50;;;;;;;3.53;2.75;;;11.20;99.90;;;;;;5115799;28;20019;-75
2021/05/29 02:15:31;;;;;;;6.15;2.50;;;11.20;99.90;;;;;;5113519;28;20023;-74
2021/05/29 02:18:00;;;;;;;6.68;2.97;;;11.20;99.90;;;;;;5099468;28;20110;-75
2021/05/29 02:20:35;;;;;;;3.92;2.00;;;11.10;99.90;;;;;;5115957;28;20028;-75
2021/05/29 02:23:01;;;;;;;3.25;1.88;;;11.00;99.90;;;;;;5115662;27;20510;-75
2021/05/29 02:25:26;;;;;;;3.70;2.03;;;11.00;99.90;;;;;;5113423;28;20085;-75
2021/05/29 02:27:52;;;;;;;3.00;2.70;;;11.00;99.90;;;;;;5094751;28;20028;-75
2021/05/29 02:30:19;;;;;;;4.60;2.30;;;11.00;99.90;;;;;;5094892;28;20020;-75
2021/05/29 02:32:44;;;;;;;3.35;2.67;;;11.00;99.90;;;;;;5094713;28;20056;-75
2021/05/29 02:35:10;;;;;;;4.07;2.55;;;11.00;99.90;;;;;;5095433;28;20483;-74
2021/05/29 02:37:36;;;;;;;3.08;2.60;;;11.00;99.90;;;;;;5095175;28;20782;-75
2021/05/29 02:40:02;;;;;;;4.40;2.80;;;10.90;99.90;;;;;;5095199;28;20021;-75
2021/05/29 02:42:28;;;;;;;3.03;2.72;;;11.00;99.90;;;;;;5096616;28;20468;-75
2021/05/29 02:44:54;;;;;;;6.18;2.55;;;11.00;99.90;;;;;;5115223;28;20047;-75
2021/05/29 02:47:20;;;;;;;3.10;2.20;;;11.00;99.90;;;;;;5106158;28;20028;-75
2021/05/29 02:49:45;;;;;;;2.40;2.20;;;10.90;99.90;;;;;;5094788;28;20095;-75
2021/05/29 02:52:11;;;;;;;5.72;1.92;;;10.80;99.90;;;;;;5094980;28;20456;-74
2021/05/29 02:54:41;;;;;;;4.65;2.38;;;10.80;99.90;;;;;;5095823;28;20032;-75
2021/05/29 02:57:09;;;;;;;5.10;3.08;;;10.80;99.90;;;;;;5098743;28;20425;-75
2021/05/29 02:59:35;;;;;;;3.63;2.28;;;10.80;99.90;;;;;;5114930;28;20484;-75
2021/05/29 03:02:02;;;;;;;4.90;2.97;;;10.80;99.90;;;;;;5104332;28;20028;-75
2021/05/29 03:04:28;;;;;;;3.30;2.47;;;10.80;99.90;;;;;;5094570;28;20024;-75
2021/05/29 03:06:53;;;;;;;4.65;3.05;;;10.80;99.90;;;;;;5094731;28;20043;-74
2021/05/29 03:09:19;;;;;;;2.67;2.47;;;10.90;99.90;;;;;;5094626;28;20119;-75
2021/05/29 03:11:45;;;;;;;2.85;2.38;;;10.80;99.90;;;;;;5094502;28;20107;-75
2021/05/29 03:14:11;;;;;;;4.97;2.70;;;10.80;99.90;;;;;;5094386;28;20103;-75
2021/05/29 03:16:37;;;;;;;3.10;2.35;;;10.80;99.90;;;;;;5093863;28;20034;-75
2021/05/29 03:19:03;;;;;;;4.07;2.80;;;10.90;99.90;;;;;;5103463;28;20452;-75
2021/05/29 03:21:29;;;;;;;3.05;2.70;;;10.90;99.90;;;;;;5101625;28;20104;-74
2021/05/29 03:23:55;;;;;;;6.72;2.60;;;10.80;99.90;;;;;;5094419;28;20028;-75
2021/05/29 03:26:22;;;;;;;3.78;2.67;;;10.80;99.90;;;;;;5095861;28;20122;-75
2021/05/29 03:28:48;;;;;;;6.78;2.78;;;10.70;99.90;;;;;;5107660;28;20028;-75
2021/05/29 03:31:14;;;;;;;5.90;2.90;;;10.70;99.90;;;;;;5105466;28;20095;-75
2021/05/29 03:33:39;;;;;;;2.83;2.40;;;10.80;99.90;;;;;;5114447;28;20046;-75
2021/05/29 03:36:05;;;;;;;3.15;2.85;;;10.80;99.90;;;;;;5112027;28;20142;-75
2021/05/29 03:38:31;;;;;;;4.78;2.50;;;10.80;99.90;;;;;;5101728;28;20020;-75
2021/05/29 03:40:57;;;;;;;4.25;2.53;;;10.70;99.90;;;;;;5095283;28;20169;-75
2021/05/29 03:43:22;;;;;;;5.28;3.60;;;10.80;99.90;;;;;;5095693;28;20024;-75
2021/05/29 03:45:48;;;;;;;4.45;3.15;;;10.90;99.90;;;;;;5110157;28;20040;-74
2021/05/29 03:48:14;;;;;;;4.20;2.60;;;11.00;99.90;;;;;;5093756;28;20428;-74
2021/05/29 03:50:40;;;;;;;8.27;2.50;;;10.80;99.90;;;;;;5093572;28;20028;-75
2021/05/29 03:53:07;;;;;;;3.72;2.28;;;10.70;99.90;;;;;;5093659;28;20070;-75
2021/05/29 03:55:34;;;;;;;2.58;2.13;;;10.60;99.90;;;;;;5095985;28;20032;-75
2021/05/29 03:58:00;;;;;;;8.88;3.05;;;10.60;99.90;;;;;;5097642;27;20017;-75
2021/05/29 04:00:27;;;;;;;4.80;2.92;;;10.70;99.90;;;;;;5099881;28;20462;-75
2021/05/29 04:02:53;;;;;;;5.15;2.78;;;10.80;99.90;;;;;;5095088;28;20368;-75
2021/05/29 04:05:21;;;;;;;5.18;2.90;;;10.80;99.90;;;;;;5093378;28;20036;-75
2021/05/29 04:07:47;;;;;;;4.00;3.15;;;10.90;99.90;;;;;;5098570;28;20086;-75
2021/05/29 04:10:25;;;;;;;4.68;2.92;;;11.00;99.90;;;;;;5093131;28;20031;-75
2021/05/29 04:12:52;;;;;;;4.93;2.45;;;11.00;99.90;;;;;;5094012;28;20488;-75
2021/05/29 04:15:18;;;;;;;4.18;2.95;;;11.00;99.90;;;;;;5099791;28;20012;-75
2021/05/29 04:17:45;;;;;;;4.65;2.45;;;10.80;99.90;;;;;;5100860;28;20111;-74
2021/05/29 04:20:14;;;;;;;6.93;2.67;;;10.70;99.90;;;;;;5102528;28;20089;-75
2021/05/29 04:22:40;;;;;;;4.85;2.83;;;10.70;99.90;;;;;;5093417;28;20073;-75
2021/05/29 04:25:09;;;;;;;2.97;2.65;;;10.80;99.90;;;;;;5101347;28;20035;-75
2021/05/29 04:27:36;;;;;;;4.95;3.13;;;11.00;99.90;;;;;;5107878;28;20123;-75
2021/05/29 04:30:06;;;;;;;12.02;3.63;;;11.10;99.90;;;;;;5109777;28;20032;-74
2021/05/29 04:32:31;;;;;;;7.32;2.97;;;11.20;99.90;;;;;;5103103;28;20044;-75
2021/05/29 04:34:57;;;;;;;3.13;2.83;;;11.10;99.90;;;;;;5102852;28;20504;-75
2021/05/29 04:37:23;;;;;;;5.45;2.72;;;11.00;99.90;;;;;;5104691;28;20027;-75
2021/05/29 04:39:49;;;;;;;3.05;2.75;;;11.10;99.90;;;;;;5103817;28;20032;-75
2021/05/29 04:42:15;;;;;;;3.97;3.30;;;11.10;99.90;;;;;;5109174;28;20032;-76
2021/05/29 04:44:40;;;;;;;3.25;2.95;;;11.20;99.90;;;;;;5112094;28;20027;-74
2021/05/29 04:47:06;;;;;;;4.55;2.60;;;11.20;99.90;;;;;;5112612;28;20108;-75
2021/05/29 04:49:32;;;;;;;3.53;3.10;;;11.30;99.90;;;;;;5101304;28;20038;-75
2021/05/29 04:51:59;;;;;;;4.57;2.70;;;11.30;99.90;;;;;;5092920;28;20016;-75
2021/05/29 04:54:26;;;;;;;5.10;2.88;;;11.40;99.90;;;;;;5092584;28;20032;-75
2021/05/29 04:56:52;;;;;;;3.55;2.80;;;11.40;99.90;;;;;;5092629;28;20066;-77
2021/05/29 04:59:19;;;;;;;4.50;2.85;;;11.40;99.90;;;;;;5094100;28;20032;-75
2021/05/29 05:01:45;;;;;;;3.30;2.70;;;11.40;99.90;;;;;;5113245;28;20103;-75
2021/05/29 05:04:11;;;;;;;5.10;2.75;;;11.50;99.90;;;;;;5113149;28;20035;-75
2021/05/29 05:06:37;;;;;;;4.53;3.65;;;11.40;99.90;;;;;;5113076;28;20035;-74
2021/05/29 05:09:04;;;;;;;5.68;2.83;;;11.60;99.90;;;;;;5113058;28;20042;-75
2021/05/29 05:11:30;;;;;;;5.22;2.45;;;11.60;99.90;;;;;;5112558;28;20098;-75
2021/05/29 05:13:56;;;;;;;2.45;2.25;;;11.60;99.90;;;;;;5113059;28;20027;-75
2021/05/29 05:16:22;;;;;;;4.25;3.25;;;11.60;99.90;;;;;;5113161;28;20027;-74
2021/05/29 05:18:48;;;;;;;3.85;2.83;;;11.60;99.90;;;;;;5094316;28;20069;-75
2021/05/29 05:21:14;;;;;;;5.63;2.58;;;11.50;99.90;;;;;;5092670;28;20029;-75
2021/05/29 05:23:40;;;;;;;8.68;2.60;;;11.40;99.90;;;;;;5094317;28;20024;-75
2021/05/29 05:26:10;;;;;;;3.55;2.67;;;11.50;99.90;;;;;;5096178;28;20388;-75
2021/05/29 05:28:37;;;;;;;5.88;2.90;;;11.50;99.90;;;;;;5115753;28;20028;-75
2021/05/29 05:31:05;;;;;;;3.08;2.67;;;11.40;99.90;;;;;;5116162;28;20032;-75
2021/05/29 05:33:44;;;;;;;5.05;3.33;;;11.50;99.90;;;;;;5115679;28;20120;-74
2021/05/29 05:36:13;;;;;;;4.32;3.17;;;11.40;99.90;;;;;;5100423;28;20019;-75
2021/05/29 05:38:39;;;;;;;3.70;2.78;;;11.40;99.90;;;;;;5108646;28;20119;-75
2021/05/29 05:41:06;;;;;;;2.92;2.63;;;11.50;99.90;;;;;;5116356;28;20031;-75
2021/05/29 05:43:33;;;;;;;3.00;2.70;;;11.70;99.90;;;;;;5116455;28;20027;-75
2021/05/29 05:45:59;;;;;;;3.85;2.92;;;11.70;99.90;;;;;;5120419;27;20558;-75
2021/05/29 05:48:24;;;;;;;8.43;3.47;;;11.80;99.90;;;;;;5103870;28;20035;-75
2021/05/29 05:50:56;;;;;;;4.47;2.80;;;11.90;99.90;;;;;;5103831;27;20062;-74
2021/05/29 05:53:24;;;;;;;4.63;2.67;;;12.20;99.90;;;;;;5108379;28;20020;-75
2021/05/29 05:55:58;;;;;;;3.38;3.08;;;12.40;99.90;;;;;;5105773;28;20039;-75
2021/05/29 05:58:25;;;;;;;3.75;2.95;;;12.60;99.90;;;;;;5107968;27;20035;-75
2021/05/29 06:00:51;;;;;;;4.63;3.15;;;12.70;99.90;;;;;;5097612;28;20092;-74
2021/05/29 06:03:19;;;;;;;5.15;3.05;;;12.80;99.90;;;;;;5106845;28;20020;-75
2021/05/29 06:05:45;;;;;;;4.28;3.03;;;12.70;99.90;;;;;;5105482;28;20391;-75
2021/05/29 06:08:10;;;;;;;6.55;2.95;;;12.70;99.90;;;;;;5107130;28;20031;-75
2021/05/29 06:10:36;;;;;;;4.13;2.80;;;12.90;99.90;;;;;;5105841;28;20055;-75
2021/05/29 06:13:02;;;;;;;5.05;3.22;;;13.20;99.90;;;;;;5103863;28;20069;-75
2021/05/29 06:18:42;;;;;;;7.30;3.45;;;13.70;99.90;;;;;;5108448;28;20057;-74
2021/05/29 06:21:01;;;;;;;6.38;3.35;;;13.80;99.90;;;;;;5103891;28;20074;-75
2021/05/29 06:23:27;;;;;;;6.60;4.30;;;13.90;99.90;;;;;;5103194;28;20039;-75
2021/05/29 06:25:52;;;;;;;5.00;3.13;;;14.00;99.90;;;;;;5104389;28;20032;-75
2021/05/29 06:28:18;;;;;;;3.60;3.28;;;14.20;99.90;;;;;;5108225;27;20063;-75
2021/05/29 06:30:44;;;;;;;4.50;3.35;;;14.10;99.90;;;;;;5103816;28;20266;-75
2021/05/29 06:33:10;;;;;;;3.92;3.38;;;14.10;99.90;;;;;;5104135;28;20039;-75
2021/05/29 06:35:35;;;;;;;5.57;3.20;;;14.20;99.90;;;;;;5105725;28;20503;-75
2021/05/29 06:38:01;;;;;;;5.35;3.20;;;14.40;99.90;;;;;;5102219;28;20016;-75
2021/05/29 06:40:27;;;;;;;4.85;2.75;;;14.70;99.90;;;;;;5102716;28;20383;-75
2021/05/29 06:42:53;;;;;;;4.30;3.28;;;14.90;99.90;;;;;;5104404;28;20027;-75
2021/05/29 06:45:20;;;;;;;6.38;3.38;;;14.90;99.90;;;;;;5105988;28;20395;-75
2021/05/29 06:47:45;;;;;;;5.53;3.50;;;15.10;99.80;;;;;;5104382;28;20088;-75
2021/05/29 06:50:12;;;;;;;4.70;2.33;;;15.30;98.70;;;;;;5094590;28;20027;-76
2021/05/29 06:52:41;;;;;;;5.32;3.05;;;15.50;97.80;;;;;;5100565;28;20028;-75
2021/05/29 07:00:36;;;;;;;7.38;3.35;;;16.50;97.10;;;;;;5101895;28;20512;-76
2021/05/29 07:03:02;;;;;;;4.38;3.00;;;16.80;95.90;;;;;;5102949;28;20480;-76
2021/05/29 07:05:27;;;;;;;7.00;4.13;;;17.10;95.00;;;;;;5108835;28;20020;-76
2021/05/29 07:07:53;;;;;;;3.83;2.75;;;17.20;93.50;;;;;;5096517;28;20468;-76
2021/05/29 07:10:19;;;;;;;6.10;3.15;;;17.40;92.90;;;;;;5109131;28;20024;-76
2021/05/29 07:12:45;;;;;;;5.50;3.40;;;17.70;92.50;;;;;;5093472;28;20103;-76
2021/05/29 07:15:11;;;;;;;4.32;2.90;;;17.90;91.80;;;;;;5094092;28;20380;-76
2021/05/29 07:17:41;;;;;;;5.38;3.20;;;18.00;91.10;;;;;;5109646;28;20016;-76
2021/05/29 07:20:07;;;;;;;9.40;3.83;;;18.30;91.40;;;;;;5096880;28;20092;-76
2021/05/29 07:22:34;;;;;;;3.13;2.83;;;18.10;91.20;;;;;;5111021;28;20035;-76
2021/05/29 07:25:00;;;;;;;2.85;2.60;;;17.90;90.50;;;;;;5113428;28;20031;-76
2021/05/29 07:27:25;;;;;;;3.63;3.17;;;17.90;90.50;;;;;;5112941;28;20479;-76
2021/05/29 07:29:51;;;;;;;6.50;2.92;;;18.00;90.50;;;;;;5093499;28;20031;-76
2021/05/29 07:32:17;;;;;;;6.53;3.25;;;18.10;90.70;;;;;;5093342;28;20115;-76
2021/05/29 07:34:43;;;;;;;3.35;2.88;;;18.30;91.60;;;;;;5109637;28;20036;-76
2021/05/29 07:37:08;;;;;;;6.05;2.72;;;18.40;91.70;;;;;;5112962;28;20102;-76
2021/05/29 07:39:35;;;;;;;4.90;2.80;;;18.70;90.90;;;;;;5103557;28;20063;-76
2021/05/29 07:42:02;;;;;;;15.57;3.33;;;19.00;91.30;;;;;;5101008;28;20054;-76
2021/05/29 07:44:28;;;;;;;6.20;3.05;;;19.20;91.00;;;;;;5094528;28;20470;-76
2021/05/29 07:46:54;;;;;;;5.45;3.35;;;19.30;88.30;;;;;;5092065;28;20040;-76
2021/05/29 07:49:20;;;;;;;5.63;3.17;;;19.30;88.80;;;;;;5097512;28;20540;-76
2021/05/29 07:51:45;;;;;;;3.60;3.05;;;19.60;87.60;;;;;;5103803;28;20117;-76
2021/05/29 07:54:12;;;;;;;5.65;2.63;;;19.80;85.80;;;;;;5109335;28;20028;-76
2021/05/29 07:56:39;;;;;;;4.13;2.83;;;19.70;84.80;;;;;;5098978;28;20099;-76
2021/05/29 07:59:12;;;;;;;6.72;3.38;;;19.60;82.50;;;;;;5092588;28;20040;-76
2021/05/29 08:01:38;;;;;;;3.53;2.20;;;19.60;83.80;;;;;;5093011;28;20394;-79
2021/05/29 08:04:04;;;;;;;4.15;3.10;;;19.90;83.00;;;;;;5092717;28;20028;-79
2021/05/29 08:06:30;;;;;;;25.77;4.10;;;20.10;84.20;;;;;;5092716;28;20121;-84
2021/05/29 08:08:56;;;;;;;3.70;2.83;;;20.10;83.20;;;;;;5109194;28;20031;-84
2021/05/29 08:11:23;;;;;;;3.20;2.88;;;20.20;81.80;;;;;;5110293;28;20035;-84
2021/05/29 08:13:51;;;;;;;3.95;3.42;;;20.60;81.70;;;;;;5107329;28;20110;-84
2021/05/29 08:16:18;;;;;;;3.38;3.05;;;21.10;80.20;;;;;;5110459;28;20032;-84
2021/05/29 08:18:45;;;;;;;3.40;2.50;;;21.30;81.40;;;;;;5107987;28;20031;-84
2021/05/29 08:21:11;;;;;;;4.40;3.22;;;21.30;82.40;;;;;;5101666;28;20513;-84
2021/05/29 08:23:38;;;;;;;5.13;3.08;;;21.60;81.70;;;;;;5106852;28;20072;-84
2021/05/29 08:26:04;;;;;;;3.35;3.10;;;21.50;80.70;;;;;;5104945;28;20031;-84
2021/05/29 08:28:30;;;;;;;10.65;3.22;;;21.40;81.90;;;;;;5112074;28;20118;-84
2021/05/29 08:30:56;;;;;;;3.13;2.72;;;21.50;83.00;;;;;;5103596;28;20031;-84
2021/05/29 08:33:22;;;;;;;3.42;2.80;;;21.50;80.70;;;;;;5103449;28;20477;-84
2021/05/29 08:35:48;;;;;;;4.43;2.63;;;21.70;81.00;;;;;;5110645;28;20117;-84
2021/05/29 08:38:15;;;;;;;5.53;3.13;;;22.00;79.20;;;;;;5111399;28;20047;-84
2021/05/29 08:40:41;;;;;;;3.72;3.00;;;22.50;78.40;;;;;;5116098;28;20016;-84
2021/05/29 08:43:08;;;;;;;15.90;3.40;;;22.60;72.80;;;;;;5118130;27;20019;-84
2021/05/29 08:45:34;;;;;;;11.77;3.67;;;22.80;73.10;;;;;;5116331;28;20107;-84
2021/05/29 08:47:59;;;;;;;7.32;2.63;;;22.60;73.80;;;;;;5118356;28;20119;-84
2021/05/29 08:50:26;;;;;;;5.30;2.67;;;22.90;73.30;;;;;;5114260;28;20023;-84
2021/05/29 08:52:52;;;;;;;2.92;2.40;;;23.00;73.20;;;;;;5114679;28;20016;-84
2021/05/29 08:55:19;;;;;;;3.40;2.97;;;23.20;72.00;;;;;;5114198;28;20111;-84
2021/05/29 08:57:48;;;;;;;5.03;2.90;;;23.40;71.30;;;;;;5122565;27;20022;-84
2021/05/29 09:00:17;;;;;;;6.53;2.63;;;23.70;71.10;;;;;;5121518;27;20057;-84
2021/05/29 09:03:02;;;;;;;7.83;3.23;;;24.10;69.70;;;;;;5119919;27;20069;-84
2021/05/29 09:05:36;;;;;;;4.05;3.30;;;24.80;70.10;;;;;;5122319;27;20309;-84
2021/05/29 09:08:13;;;;;;;5.07;3.45;;;25.30;68.80;;;;;;5123684;27;20027;-90
2021/05/29 09:10:49;;;;;;;4.50;3.10;;;25.40;69.40;;;;;;5120589;27;20372;-81
2021/05/29 09:13:22;;;;;;;7.93;2.90;;;26.00;67.80;;;;;;5119366;27;20041;-81
2021/05/29 09:15:59;;;;;;;4.95;3.30;;;25.50;68.50;;;;;;5111438;27;20089;-81
2021/05/29 09:18:25;;;;;;;5.90;3.35;;;24.70;70.10;;;;;;5111747;28;20518;-81
2021/05/29 09:20:52;;;;;;;8.57;3.42;;;24.80;70.50;;;;;;5105208;28;20028;-81
2021/05/29 09:23:17;;;;;;;5.55;3.45;;;24.50;72.60;;;;;;5106996;28;20078;-81
2021/05/29 09:25:53;;;;;;;10.77;4.93;;;24.10;72.70;;;;;;5107676;28;20027;-81
2021/05/29 09:28:25;;;;;;;4.85;3.70;;;24.10;71.20;;;;;;5111780;28;20534;-81
2021/05/29 09:30:54;;;;;;;11.40;3.60;;;23.60;73.90;;;;;;5101901;28;20019;-81
2021/05/29 09:33:25;;;;;;;9.70;4.95;;;23.30;74.20;;;;;;5108225;27;20403;-81
2021/05/29 09:36:05;;;;;;;8.23;3.92;;;23.40;73.50;;;;;;5107329;28;20421;-81
2021/05/29 09:38:54;;;;;;;9.20;3.65;;;23.30;73.30;;;;;;5104128;28;20020;-81
2021/05/29 09:41:24;;;;;;;5.18;3.15;;;23.10;74.50;;;;;;5105187;28;20040;-81
2021/05/29 09:43:53;;;;;;;7.53;3.30;;;22.40;74.30;;;;;;5107468;28;20502;-81
2021/05/29 09:46:19;;;;;;;3.75;3.03;;;22.20;76.00;;;;;;5095270;28;20039;-81
2021/05/29 09:49:02;;;;;;;3.67;3.38;;;22.10;77.10;;;;;;5107291;28;20039;-81
2021/05/29 09:51:32;;;;;;;4.88;3.53;;;22.40;77.30;;;;;;5112252;28;20016;-80
2021/05/29 09:54:08;;;;;;;6.70;3.70;;;22.50;76.40;;;;;;5097592;28;20028;-77
2021/05/29 09:56:40;;;;;;;5.45;3.75;;;22.30;76.60;;;;;;5097403;28;20050;-81
2021/05/29 09:59:10;;;;;;;7.35;3.92;;;22.30;78.20;;;;;;5100637;28;20028;-78
2021/05/29 10:01:44;;;;;;;31.48;5.15;;;22.40;77.70;;;;;;5106573;28;20085;-80
2021/05/29 10:04:40;;;;;;;5.68;3.42;;;22.30;77.50;;;;;;5107207;27;20030;-80
2021/05/29 10:07:12;;;;;;;5.25;3.50;;;22.20;79.30;;;;;;5110309;27;20115;-80
2021/05/29 10:09:38;;;;;;;7.47;3.95;;;22.10;81.10;;;;;;5113499;28;20502;-80
2021/05/29 10:12:05;;;;;;;5.72;3.42;;;22.00;82.10;;;;;;5115060;28;20016;-80
2021/05/29 10:14:32;;;;;;;4.85;3.40;;;21.90;82.80;;;;;;5115481;28;20024;-80
2021/05/29 10:17:00;;;;;;;5.10;3.33;;;21.90;80.80;;;;;;5115023;28;20016;-80
2021/05/29 10:19:28;;;;;;;7.53;4.07;;;21.90;82.10;;;;;;5115363;28;20019;-80
2021/05/29 10:21:54;;;;;;;8.77;4.70;;;21.90;80.40;;;;;;5115498;28;20026;-80
2021/05/29 10:24:23;;;;;;;5.60;3.85;;;21.90;80.90;;;;;;5115106;28;20080;-80
2021/05/29 10:26:51;;;;;;;5.55;4.40;;;21.90;79.90;;;;;;5115164;28;20390;-80
2021/05/29 10:29:17;;;;;;;4.65;3.85;;;21.80;80.30;;;;;;5114940;28;20034;-80
2021/05/29 10:31:44;;;;;;;8.90;4.22;;;21.60;88.10;;;;;;5114775;28;20086;-80
2021/05/29 10:34:10;;;;;;;6.78;4.22;;;21.40;96.10;;;;;;5115038;28;20084;-80
2021/05/29 10:36:36;;;;;;;7.80;4.00;;;21.40;83.50;;;;;;5114955;28;20425;-80
2021/05/29 10:39:04;;;;;;;8.10;3.40;;;21.60;84.80;;;;;;5115132;28;20032;-80
2021/05/29 10:41:58;;;;;;;3.75;3.08;;;21.70;83.70;;;;;;5114947;28;20092;-80
2021/05/29 10:44:34;;;;;;;5.05;3.25;;;22.10;83.40;;;;;;5114607;28;20038;-80
2021/05/29 10:47:08;;;;;;;6.10;4.55;;;22.50;80.70;;;;;;5114880;28;20474;-80
2021/05/29 10:49:52;;;;;;;4.97;3.35;;;22.80;79.90;;;;;;5114676;28;20423;-80
2021/05/29 10:52:30;;;;;;;4.47;3.45;;;22.90;78.70;;;;;;5114833;28;20023;-80
2021/05/29 10:55:17;;;;;;;8.20;3.95;;;23.10;75.30;;;;;;5114835;28;20024;-80
2021/05/29 10:58:01;;;;;;;5.07;3.33;;;23.30;76.10;;;;;;5114487;28;20016;-80
2021/05/29 11:00:35;;;;;;;4.10;3.63;;;23.60;74.10;;;;;;5114402;28;20020;-80
2021/05/29 11:03:16;;;;;;;5.00;4.30;;;24.30;74.50;;;;;;5114672;28;20019;-80
2021/05/29 11:05:55;;;;;;;3.95;3.65;;;24.60;69.30;;;;;;5114294;28;20024;-80
2021/05/29 11:08:49;;;;;;;19.77;5.65;;;24.90;71.20;;;;;;5114460;28;20023;-80
2021/05/29 11:11:37;;;;;;;4.65;4.18;;;25.00;72.00;;;;;;5114297;28;20036;-80
2021/05/29 11:14:02;;;;;;;7.38;4.80;;;25.20;71.00;;;;;;5114124;28;20016;-80
2021/05/29 11:16:47;;;;;;;13.98;4.40;;;25.00;70.70;;;;;;5114325;28;20388;-80
2021/05/29 11:19:25;;;;;;;11.77;4.72;;;24.80;69.40;;;;;;5114394;28;20098;-80
2021/05/29 11:22:13;;;;;;;6.60;3.75;;;24.70;71.20;;;;;;5114360;28;20430;-80
2021/05/29 11:24:49;;;;;;;6.25;4.90;;;24.60;71.40;;;;;;5113954;28;20096;-80
2021/05/29 11:27:21;;;;;;;8.93;5.85;;;24.70;71.80;;;;;;5114010;28;20081;-80
2021/05/29 11:30:03;;;;;;;11.63;7.35;;;25.10;70.90;;;;;;5113533;28;20487;-80
2021/05/29 11:35:38;;;;;;;;;;;26.30;69.00;;;;;;5114366;28;20051;-80
2021/05/29 11:38:31;;;;;;;6.68;4.88;;;27.10;67.10;;;;;;5113929;28;20367;-80
2021/05/29 11:40:57;;;;;;;5.38;4.63;;;29.40;62.70;;;;;;5113266;27;20039;-80
2021/05/29 11:43:37;;;;;;;12.90;4.53;;;31.80;57.90;;;;;;5113452;28;20129;-80
2021/05/29 11:46:14;;;;;;;5.68;5.05;;;32.20;56.70;;;;;;5113860;28;20034;-80
2021/05/29 11:48:45;;;;;;;6.53;4.13;;;34.90;54.60;;;;;;5111997;28;20491;-80
2021/05/29 11:51:14;;;;;;;8.02;4.88;;;34.10;50.90;;;;;;5113747;28;20488;-80
2021/05/29 11:53:54;;;;;;;8.65;4.60;;;33.60;53.30;;;;;;5113482;28;20076;-80
2021/05/29 11:56:31;;;;;;;5.63;4.40;;;32.90;55.30;;;;;;5113605;28;20027;-80
2021/05/29 11:58:58;;;;;;;4.88;4.38;;;31.10;55.00;;;;;;5111793;28;20513;-79
2021/05/29 12:01:27;;;;;;;5.60;4.50;;;30.00;58.70;;;;;;5113473;28;20032;-78
2021/05/29 12:03:59;;;;;;;5.63;4.25;;;30.20;58.50;;;;;;5113407;28;20111;-78
2021/05/29 12:06:36;;;;;;;6.00;4.10;;;29.40;58.60;;;;;;5113292;28;20483;-78
2021/05/29 12:09:09;;;;;;;7.88;4.75;;;28.90;60.10;;;;;;5113289;28;20027;-78
2021/05/29 12:11:36;;;;;;;7.07;5.20;;;30.20;59.50;;;;;;5112925;28;20102;-78
2021/05/29 12:14:10;;;;;;;8.02;4.82;;;31.80;57.60;;;;;;5113287;28;20020;-78
2021/05/29 12:16:39;;;;;;;6.20;4.47;;;31.60;55.80;;;;;;5113109;28;20081;-78
2021/05/29 12:19:06;;;;;;;8.05;4.72;;;31.30;57.50;;;;;;5113053;28;20031;-78
2021/05/29 12:21:50;;;;;;;10.13;5.53;;;30.00;58.00;;;;;;5113236;28;20364;-78
2021/05/29 12:24:17;;;;;;;5.88;4.38;;;29.10;58.40;;;;;;5113194;28;20051;-78
2021/05/29 12:26:44;;;;;;;5.95;4.78;;;28.40;61.50;;;;;;5112529;28;20499;-78
2021/05/29 12:29:10;;;;;;;8.48;4.57;;;29.90;61.50;;;;;;5112935;28;20030;-78
2021/05/29 12:31:49;;;;;;;5.28;4.20;;;29.10;61.10;;;;;;5112467;28;20028;-78
2021/05/29 12:34:15;;;;;;;8.83;4.97;;;28.10;61.20;;;;;;5113012;28;20031;-78
2021/05/29 12:37:02;;;;;;;10.10;6.85;;;27.60;62.10;;;;;;5112773;28;20024;-78
2021/05/29 12:39:47;;;;;;;11.55;6.15;;;27.00;62.50;;;;;;5113030;28;20425;-80
2021/05/29 12:42:33;;;;;;;10.88;8.15;;;26.50;63.20;;;;;;5112641;28;20467;-80
2021/05/29 12:45:06;;;;;;;13.93;10.43;;;26.00;64.80;;;;;;5112591;28;20521;-80
2021/05/29 12:47:33;;;;;;;19.52;14.70;;;25.70;65.60;;;;;;5112692;28;20475;-80
2021/05/29 12:50:12;;;;;;;10.82;7.82;;;25.40;66.70;;;;;;5112342;28;20111;-80
2021/05/29 12:52:38;;;;;;;11.45;7.75;;;24.90;66.40;;;;;;5112863;28;20032;-80
2021/05/29 12:55:05;;;;;;;10.52;5.78;;;24.70;65.60;;;;;;5111335;28;20497;-80
2021/05/29 12:57:39;;;;;;;10.93;6.20;;;24.50;67.10;;;;;;5112486;28;20089;-80
2021/05/29 13:11:37;;;;;;;9.45;7.13;;;23.70;71.30;;;;;;5112760;28;20047;-80
2021/05/29 13:14:15;;;;;;;9.55;5.68;;;23.80;68.20;;;;;;5112402;28;20391;-80
2021/05/29 13:16:58;;;;;;;11.00;7.22;;;23.90;66.60;;;;;;5112540;28;20505;-80